sensor_id;sensor_type;location;lat;lon;timestamp;temperature;humidity
17984;DHT22;9117;52.420;20.728;2023-03-14T00:01:10;9.90;76.40
17984;DHT22;9117;52.420;20.728;2023-03-14T00:03:39;9.90;83.70
17984;DHT22;9117;52.420;20.728;2023-03-14T00:06:07;9.80;72.90
17984;DHT22;9117;52.420;20.728;2023-03-14T00:08:36;9.90;77.50
17984;DHT22;9117;52.420;20.728;2023-03-14T00:11:06;9.80;79.10
17984;DHT22;9117;52.420;20.728;2023-03-14T00:13:34;9.80;78.20
17984;DHT22;9117;52.420;20.728;2023-03-14T00:16:07;9.80;74.60
17984;DHT22;9117;52.420;20.728;2023-03-14T00:18:35;9.80;82.00
17984;DHT22;9117;52.420;20.728;2023-03-14T00:21:05;9.80;81.30
17984;DHT22;9117;52.420;20.728;2023-03-14T00:23:35;9.80;77.00
17984;DHT22;9117;52.420;20.728;2023-03-14T00:26:05;9.80;80.30
17984;DHT22;9117;52.420;20.728;2023-03-14T00:28:33;9.90;78.50
17984;DHT22;9117;52.420;20.728;2023-03-14T00:31:02;9.90;76.90
17984;DHT22;9117;52.420;20.728;2023-03-14T00:33:32;9.90;80.40
17984;DHT22;9117;52.420;20.728;2023-03-14T00:36:03;9.80;74.50
17984;DHT22;9117;52.420;20.728;2023-03-14T00:38:32;9.90;74.60
17984;DHT22;9117;52.420;20.728;2023-03-14T00:41:03;9.90;76.80
17984;DHT22;9117;52.420;20.728;2023-03-14T00:43:31;9.80;79.60
17984;DHT22;9117;52.420;20.728;2023-03-14T00:46:00;9.80;80.30
17984;DHT22;9117;52.420;20.728;2023-03-14T00:48:28;9.80;80.20
17984;DHT22;9117;52.420;20.728;2023-03-14T00:50:58;9.80;83.30
17984;DHT22;9117;52.420;20.728;2023-03-14T00:53:26;9.70;77.60
17984;DHT22;9117;52.420;20.728;2023-03-14T00:55:54;9.80;79.50
17984;DHT22;9117;52.420;20.728;2023-03-14T00:58:22;9.70;80.40
17984;DHT22;9117;52.420;20.728;2023-03-14T01:00:50;9.70;84.30
17984;DHT22;9117;52.420;20.728;2023-03-14T01:03:19;9.70;81.60
17984;DHT22;9117;52.420;20.728;2023-03-14T01:05:47;9.70;81.60
17984;DHT22;9117;52.420;20.728;2023-03-14T01:08:16;9.60;86.40
17984;DHT22;9117;52.420;20.728;2023-03-14T01:10:44;9.60;84.00
17984;DHT22;9117;52.420;20.728;2023-03-14T01:13:13;9.60;82.30
17984;DHT22;9117;52.420;20.728;2023-03-14T01:15:41;9.60;75.50
17984;DHT22;9117;52.420;20.728;2023-03-14T01:18:09;9.50;80.70
17984;DHT22;9117;52.420;20.728;2023-03-14T01:20:37;9.50;78.00
17984;DHT22;9117;52.420;20.728;2023-03-14T01:23:05;9.60;81.50
17984;DHT22;9117;52.420;20.728;2023-03-14T01:25:40;9.60;82.80
17984;DHT22;9117;52.420;20.728;2023-03-14T01:28:08;9.50;82.30
17984;DHT22;9117;52.420;20.728;2023-03-14T01:30:37;9.50;85.80
17984;DHT22;9117;52.420;20.728;2023-03-14T01:33:05;9.50;82.50
17984;DHT22;9117;52.420;20.728;2023-03-14T01:35:33;9.50;87.70
17984;DHT22;9117;52.420;20.728;2023-03-14T01:38:01;9.40;82.60
17984;DHT22;9117;52.420;20.728;2023-03-14T01:40:29;9.40;82.40
17984;DHT22;9117;52.420;20.728;2023-03-14T01:43:12;9.40;79.30
17984;DHT22;9117;52.420;20.728;2023-03-14T01:48:48;9.40;83.00
17984;DHT22;9117;52.420;20.728;2023-03-14T01:51:19;9.30;84.70
17984;DHT22;9117;52.420;20.728;2023-03-14T01:53:49;9.40;81.90
17984;DHT22;9117;52.420;20.728;2023-03-14T01:56:19;9.30;84.30
17984;DHT22;9117;52.420;20.728;2023-03-14T01:58:51;9.30;84.40
17984;DHT22;9117;52.420;20.728;2023-03-14T02:01:21;9.40;81.20
17984;DHT22;9117;52.420;20.728;2023-03-14T02:03:55;9.30;81.10
17984;DHT22;9117;52.420;20.728;2023-03-14T02:06:26;9.30;85.00
17984;DHT22;9117;52.420;20.728;2023-03-14T02:08:55;9.30;86.10
17984;DHT22;9117;52.420;20.728;2023-03-14T02:11:27;9.20;83.70
17984;DHT22;9117;52.420;20.728;2023-03-14T02:13:58;9.30;78.10
17984;DHT22;9117;52.420;20.728;2023-03-14T02:16:27;9.30;79.30
17984;DHT22;9117;52.420;20.728;2023-03-14T02:18:55;9.20;81.30
17984;DHT22;9117;52.420;20.728;2023-03-14T02:21:29;9.20;79.30
17984;DHT22;9117;52.420;20.728;2023-03-14T02:24:09;9.10;79.70
17984;DHT22;9117;52.420;20.728;2023-03-14T02:26:44;9.10;78.20
17984;DHT22;9117;52.420;20.728;2023-03-14T02:29:14;9.10;81.90
17984;DHT22;9117;52.420;20.728;2023-03-14T02:31:43;9.00;83.50
17984;DHT22;9117;52.420;20.728;2023-03-14T02:34:11;9.10;83.70
17984;DHT22;9117;52.420;20.728;2023-03-14T02:36:40;9.10;80.40
17984;DHT22;9117;52.420;20.728;2023-03-14T02:39:13;9.00;83.50
17984;DHT22;9117;52.420;20.728;2023-03-14T02:41:42;9.00;80.70
17984;DHT22;9117;52.420;20.728;2023-03-14T02:44:12;9.00;80.90
17984;DHT22;9117;52.420;20.728;2023-03-14T02:46:41;9.00;78.00
17984;DHT22;9117;52.420;20.728;2023-03-14T02:49:12;9.00;79.70
17984;DHT22;9117;52.420;20.728;2023-03-14T02:51:43;9.00;79.70
17984;DHT22;9117;52.420;20.728;2023-03-14T02:54:14;8.90;83.70
17984;DHT22;9117;52.420;20.728;2023-03-14T02:56:43;8.90;82.90
17984;DHT22;9117;52.420;20.728;2023-03-14T02:59:11;8.90;81.70
17984;DHT22;9117;52.420;20.728;2023-03-14T03:01:41;8.90;84.60
17984;DHT22;9117;52.420;20.728;2023-03-14T03:04:09;8.90;85.60
17984;DHT22;9117;52.420;20.728;2023-03-14T03:06:37;8.90;83.30
17984;DHT22;9117;52.420;20.728;2023-03-14T03:09:05;8.90;83.30
17984;DHT22;9117;52.420;20.728;2023-03-14T03:11:33;8.80;81.60
17984;DHT22;9117;52.420;20.728;2023-03-14T03:14:02;8.80;82.10
17984;DHT22;9117;52.420;20.728;2023-03-14T03:16:30;8.80;79.30
17984;DHT22;9117;52.420;20.728;2023-03-14T03:18:59;8.80;75.80
17984;DHT22;9117;52.420;20.728;2023-03-14T03:21:28;8.70;78.60
17984;DHT22;9117;52.420;20.728;2023-03-14T03:23:56;8.70;76.60
17984;DHT22;9117;52.420;20.728;2023-03-14T03:26:24;8.70;83.30
17984;DHT22;9117;52.420;20.728;2023-03-14T03:28:52;8.70;80.10
17984;DHT22;9117;52.420;20.728;2023-03-14T03:31:20;8.60;79.20
17984;DHT22;9117;52.420;20.728;2023-03-14T03:33:48;8.60;77.80
17984;DHT22;9117;52.420;20.728;2023-03-14T03:36:22;8.60;76.90
17984;DHT22;9117;52.420;20.728;2023-03-14T03:38:50;8.60;81.20
17984;DHT22;9117;52.420;20.728;2023-03-14T03:41:18;8.70;80.40
17984;DHT22;9117;52.420;20.728;2023-03-14T03:43:46;8.60;82.80
17984;DHT22;9117;52.420;20.728;2023-03-14T03:46:15;8.60;80.90
17984;DHT22;9117;52.420;20.728;2023-03-14T03:48:43;8.60;84.60
17984;DHT22;9117;52.420;20.728;2023-03-14T03:51:12;8.50;85.10
17984;DHT22;9117;52.420;20.728;2023-03-14T03:53:42;8.50;81.80
17984;DHT22;9117;52.420;20.728;2023-03-14T03:56:11;8.50;83.60
17984;DHT22;9117;52.420;20.728;2023-03-14T03:58:39;8.50;81.10
17984;DHT22;9117;52.420;20.728;2023-03-14T04:01:09;8.40;82.80
17984;DHT22;9117;52.420;20.728;2023-03-14T04:03:38;8.40;79.80
17984;DHT22;9117;52.420;20.728;2023-03-14T04:06:09;8.40;82.10
17984;DHT22;9117;52.420;20.728;2023-03-14T04:08:38;8.30;81.60
17984;DHT22;9117;52.420;20.728;2023-03-14T04:11:08;8.30;80.50
17984;DHT22;9117;52.420;20.728;2023-03-14T04:13:37;8.30;78.80
17984;DHT22;9117;52.420;20.728;2023-03-14T04:16:11;8.20;86.30
17984;DHT22;9117;52.420;20.728;2023-03-14T04:18:41;8.20;83.90
17984;DHT22;9117;52.420;20.728;2023-03-14T04:21:09;8.20;84.70
17984;DHT22;9117;52.420;20.728;2023-03-14T04:23:38;8.20;87.30
17984;DHT22;9117;52.420;20.728;2023-03-14T04:26:07;8.20;78.50
17984;DHT22;9117;52.420;20.728;2023-03-14T04:28:36;8.20;78.60
17984;DHT22;9117;52.420;20.728;2023-03-14T04:31:09;8.20;84.90
17984;DHT22;9117;52.420;20.728;2023-03-14T04:33:37;8.20;83.60
17984;DHT22;9117;52.420;20.728;2023-03-14T04:36:07;8.30;81.20
17984;DHT22;9117;52.420;20.728;2023-03-14T04:38:36;8.30;81.80
17984;DHT22;9117;52.420;20.728;2023-03-14T04:41:04;8.30;84.90
17984;DHT22;9117;52.420;20.728;2023-03-14T04:43:34;8.30;79.40
17984;DHT22;9117;52.420;20.728;2023-03-14T04:46:02;8.30;81.40
17984;DHT22;9117;52.420;20.728;2023-03-14T04:48:30;8.40;83.20
17984;DHT22;9117;52.420;20.728;2023-03-14T04:50:59;8.40;71.30
17984;DHT22;9117;52.420;20.728;2023-03-14T04:53:27;8.40;86.10
17984;DHT22;9117;52.420;20.728;2023-03-14T04:55:58;8.40;86.60
17984;DHT22;9117;52.420;20.728;2023-03-14T04:58:26;8.40;83.60
17984;DHT22;9117;52.420;20.728;2023-03-14T05:00:58;8.50;82.70
17984;DHT22;9117;52.420;20.728;2023-03-14T05:03:29;8.50;87.60
17984;DHT22;9117;52.420;20.728;2023-03-14T05:05:57;8.50;85.60
17984;DHT22;9117;52.420;20.728;2023-03-14T05:08:25;8.60;82.90
17984;DHT22;9117;52.420;20.728;2023-03-14T05:10:54;8.60;87.70
17984;DHT22;9117;52.420;20.728;2023-03-14T05:13:23;8.60;87.50
17984;DHT22;9117;52.420;20.728;2023-03-14T05:15:51;8.60;86.00
17984;DHT22;9117;52.420;20.728;2023-03-14T05:18:20;8.60;82.70
17984;DHT22;9117;52.420;20.728;2023-03-14T05:20:50;8.60;88.20
17984;DHT22;9117;52.420;20.728;2023-03-14T05:23:19;8.70;73.80
17984;DHT22;9117;52.420;20.728;2023-03-14T05:25:47;8.70;76.60
17984;DHT22;9117;52.420;20.728;2023-03-14T05:28:15;8.70;74.50
17984;DHT22;9117;52.420;20.728;2023-03-14T05:30:43;8.70;71.50
17984;DHT22;9117;52.420;20.728;2023-03-14T05:33:12;8.70;70.60
17984;DHT22;9117;52.420;20.728;2023-03-14T05:35:41;8.70;68.80
17984;DHT22;9117;52.420;20.728;2023-03-14T05:38:10;8.70;66.60
17984;DHT22;9117;52.420;20.728;2023-03-14T05:40:38;8.70;68.60
17984;DHT22;9117;52.420;20.728;2023-03-14T05:43:06;8.70;65.20
17984;DHT22;9117;52.420;20.728;2023-03-14T05:45:34;8.70;67.80
17984;DHT22;9117;52.420;20.728;2023-03-14T05:48:03;8.60;69.80
17984;DHT22;9117;52.420;20.728;2023-03-14T05:50:31;8.60;67.70
17984;DHT22;9117;52.420;20.728;2023-03-14T05:53:05;8.60;79.10
17984;DHT22;9117;52.420;20.728;2023-03-14T05:55:33;8.70;71.10
17984;DHT22;9117;52.420;20.728;2023-03-14T05:58:01;8.70;69.70
17984;DHT22;9117;52.420;20.728;2023-03-14T06:00:29;8.70;71.10
17984;DHT22;9117;52.420;20.728;2023-03-14T06:02:58;8.80;68.20
17984;DHT22;9117;52.420;20.728;2023-03-14T06:05:26;8.80;63.20
17984;DHT22;9117;52.420;20.728;2023-03-14T06:07:54;8.90;60.70
17984;DHT22;9117;52.420;20.728;2023-03-14T06:10:24;8.90;62.50
17984;DHT22;9117;52.420;20.728;2023-03-14T06:12:52;8.90;59.80
17984;DHT22;9117;52.420;20.728;2023-03-14T06:15:20;9.00;67.20
17984;DHT22;9117;52.420;20.728;2023-03-14T06:17:48;9.00;60.00
17984;DHT22;9117;52.420;20.728;2023-03-14T06:20:17;9.10;61.60
17984;DHT22;9117;52.420;20.728;2023-03-14T06:22:45;9.20;61.90
17984;DHT22;9117;52.420;20.728;2023-03-14T06:25:13;9.20;61.90
17984;DHT22;9117;52.420;20.728;2023-03-14T06:27:43;9.30;60.80
17984;DHT22;9117;52.420;20.728;2023-03-14T06:30:11;9.50;70.80
17984;DHT22;9117;52.420;20.728;2023-03-14T06:32:40;9.60;71.50
17984;DHT22;9117;52.420;20.728;2023-03-14T06:35:08;9.70;72.00
17984;DHT22;9117;52.420;20.728;2023-03-14T06:37:36;9.90;70.70
17984;DHT22;9117;52.420;20.728;2023-03-14T06:40:06;10.00;75.00
17984;DHT22;9117;52.420;20.728;2023-03-14T06:42:35;10.00;68.40
17984;DHT22;9117;52.420;20.728;2023-03-14T06:45:06;10.10;79.00
17984;DHT22;9117;52.420;20.728;2023-03-14T06:47:35;10.20;79.80
17984;DHT22;9117;52.420;20.728;2023-03-14T06:50:06;10.20;77.60
17984;DHT22;9117;52.420;20.728;2023-03-14T06:52:34;10.30;70.20
17984;DHT22;9117;52.420;20.728;2023-03-14T06:55:03;10.40;67.40
17984;DHT22;9117;52.420;20.728;2023-03-14T06:57:31;10.40;67.70
17984;DHT22;9117;52.420;20.728;2023-03-14T06:59:59;10.50;76.30
17984;DHT22;9117;52.420;20.728;2023-03-14T07:02:29;10.70;67.20
17984;DHT22;9117;52.420;20.728;2023-03-14T07:05:10;10.80;69.60
17984;DHT22;9117;52.420;20.728;2023-03-14T07:07:38;10.90;75.30
17984;DHT22;9117;52.420;20.728;2023-03-14T07:10:07;11.00;75.80
17984;DHT22;9117;52.420;20.728;2023-03-14T07:12:36;11.00;72.10
17984;DHT22;9117;52.420;20.728;2023-03-14T07:15:05;11.10;69.40
17984;DHT22;9117;52.420;20.728;2023-03-14T07:17:46;11.10;66.20
17984;DHT22;9117;52.420;20.728;2023-03-14T07:20:15;11.20;70.90
17984;DHT22;9117;52.420;20.728;2023-03-14T07:22:44;11.20;69.10
17984;DHT22;9117;52.420;20.728;2023-03-14T07:25:15;11.30;75.40
17984;DHT22;9117;52.420;20.728;2023-03-14T07:27:43;11.30;66.90
17984;DHT22;9117;52.420;20.728;2023-03-14T07:30:12;11.40;77.20
17984;DHT22;9117;52.420;20.728;2023-03-14T07:32:40;11.50;74.80
17984;DHT22;9117;52.420;20.728;2023-03-14T07:35:10;11.60;78.60
17984;DHT22;9117;52.420;20.728;2023-03-14T07:37:38;11.60;78.80
17984;DHT22;9117;52.420;20.728;2023-03-14T07:40:07;11.80;82.00
17984;DHT22;9117;52.420;20.728;2023-03-14T07:42:37;11.90;77.50
17984;DHT22;9117;52.420;20.728;2023-03-14T07:45:06;12.00;87.40
17984;DHT22;9117;52.420;20.728;2023-03-14T07:47:35;12.10;77.30
17984;DHT22;9117;52.420;20.728;2023-03-14T07:50:04;12.10;82.00
17984;DHT22;9117;52.420;20.728;2023-03-14T07:52:34;12.20;88.90
17984;DHT22;9117;52.420;20.728;2023-03-14T07:55:02;12.20;80.50
17984;DHT22;9117;52.420;20.728;2023-03-14T07:57:30;12.30;87.90
17984;DHT22;9117;52.420;20.728;2023-03-14T07:59:59;12.30;89.40
17984;DHT22;9117;52.420;20.728;2023-03-14T08:02:27;12.30;84.80
17984;DHT22;9117;52.420;20.728;2023-03-14T08:04:55;12.30;82.10
17984;DHT22;9117;52.420;20.728;2023-03-14T08:07:23;12.40;84.80
17984;DHT22;9117;52.420;20.728;2023-03-14T08:09:53;12.50;79.20
17984;DHT22;9117;52.420;20.728;2023-03-14T08:12:21;12.50;87.40
17984;DHT22;9117;52.420;20.728;2023-03-14T08:14:49;12.60;86.00
17984;DHT22;9117;52.420;20.728;2023-03-14T08:17:17;12.70;82.40
17984;DHT22;9117;52.420;20.728;2023-03-14T08:19:45;12.80;83.60
17984;DHT22;9117;52.420;20.728;2023-03-14T08:22:14;12.90;83.20
17984;DHT22;9117;52.420;20.728;2023-03-14T08:24:45;12.90;83.50
17984;DHT22;9117;52.420;20.728;2023-03-14T08:27:15;13.00;84.80
17984;DHT22;9117;52.420;20.728;2023-03-14T08:29:43;13.00;87.70
17984;DHT22;9117;52.420;20.728;2023-03-14T08:32:11;13.00;83.10
17984;DHT22;9117;52.420;20.728;2023-03-14T08:34:39;12.90;86.40
17984;DHT22;9117;52.420;20.728;2023-03-14T08:37:08;12.90;90.60
17984;DHT22;9117;52.420;20.728;2023-03-14T08:39:51;12.90;90.20
17984;DHT22;9117;52.420;20.728;2023-03-14T08:42:21;13.00;89.40
17984;DHT22;9117;52.420;20.728;2023-03-14T08:44:50;13.00;87.70
17984;DHT22;9117;52.420;20.728;2023-03-14T08:47:19;13.10;86.60
17984;DHT22;9117;52.420;20.728;2023-03-14T08:49:47;13.00;87.70
17984;DHT22;9117;52.420;20.728;2023-03-14T08:52:15;13.10;86.00
17984;DHT22;9117;52.420;20.728;2023-03-14T08:54:44;13.10;90.30
17984;DHT22;9117;52.420;20.728;2023-03-14T08:57:12;13.10;89.60
17984;DHT22;9117;52.420;20.728;2023-03-14T08:59:42;13.10;90.90
17984;DHT22;9117;52.420;20.728;2023-03-14T09:02:11;13.10;86.60
17984;DHT22;9117;52.420;20.728;2023-03-14T09:04:39;13.00;88.80
17984;DHT22;9117;52.420;20.728;2023-03-14T09:07:08;13.10;87.60
17984;DHT22;9117;52.420;20.728;2023-03-14T09:09:39;13.20;90.70
17984;DHT22;9117;52.420;20.728;2023-03-14T09:12:07;13.30;90.20
17984;DHT22;9117;52.420;20.728;2023-03-14T09:14:36;13.30;91.00
17984;DHT22;9117;52.420;20.728;2023-03-14T09:17:05;13.30;86.90
17984;DHT22;9117;52.420;20.728;2023-03-14T09:19:34;13.40;84.50
17984;DHT22;9117;52.420;20.728;2023-03-14T09:22:03;13.40;83.50
17984;DHT22;9117;52.420;20.728;2023-03-14T09:24:31;13.40;86.40
17984;DHT22;9117;52.420;20.728;2023-03-14T09:27:00;13.40;84.90
17984;DHT22;9117;52.420;20.728;2023-03-14T09:29:30;13.40;90.00
17984;DHT22;9117;52.420;20.728;2023-03-14T09:31:58;13.30;89.20
17984;DHT22;9117;52.420;20.728;2023-03-14T09:34:28;13.30;90.30
17984;DHT22;9117;52.420;20.728;2023-03-14T09:36:56;13.30;90.80
17984;DHT22;9117;52.420;20.728;2023-03-14T09:39:24;13.30;91.50
17984;DHT22;9117;52.420;20.728;2023-03-14T09:41:54;13.40;90.30
17984;DHT22;9117;52.420;20.728;2023-03-14T09:44:26;13.40;90.90
17984;DHT22;9117;52.420;20.728;2023-03-14T09:46:58;13.30;90.30
17984;DHT22;9117;52.420;20.728;2023-03-14T09:49:32;13.30;90.70
17984;DHT22;9117;52.420;20.728;2023-03-14T09:52:05;13.30;91.00
17984;DHT22;9117;52.420;20.728;2023-03-14T09:54:37;13.30;92.20
17984;DHT22;9117;52.420;20.728;2023-03-14T09:57:12;13.30;93.20
17984;DHT22;9117;52.420;20.728;2023-03-14T09:59:43;13.30;93.00
17984;DHT22;9117;52.420;20.728;2023-03-14T10:02:16;13.30;93.20
17984;DHT22;9117;52.420;20.728;2023-03-14T10:04:47;13.30;92.80
17984;DHT22;9117;52.420;20.728;2023-03-14T10:07:18;13.30;93.00
17984;DHT22;9117;52.420;20.728;2023-03-14T10:09:49;13.40;92.40
17984;DHT22;9117;52.420;20.728;2023-03-14T10:12:18;13.30;92.80
17984;DHT22;9117;52.420;20.728;2023-03-14T10:14:49;13.20;92.20
17984;DHT22;9117;52.420;20.728;2023-03-14T10:17:18;13.30;93.30
17984;DHT22;9117;52.420;20.728;2023-03-14T10:19:59;13.40;90.70
17984;DHT22;9117;52.420;20.728;2023-03-14T10:22:30;13.50;92.30
17984;DHT22;9117;52.420;20.728;2023-03-14T10:25:02;13.60;93.00
17984;DHT22;9117;52.420;20.728;2023-03-14T10:27:34;13.80;92.60
17984;DHT22;9117;52.420;20.728;2023-03-14T10:30:32;13.90;92.70
17984;DHT22;9117;52.420;20.728;2023-03-14T10:33:08;13.90;91.70
17984;DHT22;9117;52.420;20.728;2023-03-14T10:35:39;13.90;92.20
17984;DHT22;9117;52.420;20.728;2023-03-14T10:38:12;14.00;91.20
17984;DHT22;9117;52.420;20.728;2023-03-14T10:40:46;14.10;92.10
17984;DHT22;9117;52.420;20.728;2023-03-14T10:43:18;14.30;93.20
17984;DHT22;9117;52.420;20.728;2023-03-14T10:45:52;14.50;91.30
17984;DHT22;9117;52.420;20.728;2023-03-14T10:48:30;14.40;91.10
17984;DHT22;9117;52.420;20.728;2023-03-14T10:51:05;14.50;89.60
17984;DHT22;9117;52.420;20.728;2023-03-14T10:53:39;14.40;90.20
17984;DHT22;9117;52.420;20.728;2023-03-14T10:56:12;14.40;89.90
17984;DHT22;9117;52.420;20.728;2023-03-14T10:58:42;14.40;84.80
17984;DHT22;9117;52.420;20.728;2023-03-14T11:04:17;14.50;90.40
17984;DHT22;9117;52.420;20.728;2023-03-14T11:06:52;14.40;90.30
17984;DHT22;9117;52.420;20.728;2023-03-14T11:09:29;14.50;89.70
17984;DHT22;9117;52.420;20.728;2023-03-14T11:12:05;14.40;91.00
17984;DHT22;9117;52.420;20.728;2023-03-14T11:14:45;14.50;90.40
17984;DHT22;9117;52.420;20.728;2023-03-14T11:17:20;14.50;88.10
17984;DHT22;9117;52.420;20.728;2023-03-14T11:20:10;14.40;87.30
17984;DHT22;9117;52.420;20.728;2023-03-14T11:22:49;14.20;88.90
17984;DHT22;9117;52.420;20.728;2023-03-14T11:25:27;14.20;90.80
17984;DHT22;9117;52.420;20.728;2023-03-14T11:28:04;14.20;91.10
17984;DHT22;9117;52.420;20.728;2023-03-14T11:30:41;14.10;89.20
17984;DHT22;9117;52.420;20.728;2023-03-14T11:33:15;14.00;88.50
17984;DHT22;9117;52.420;20.728;2023-03-14T11:35:47;14.10;90.00
17984;DHT22;9117;52.420;20.728;2023-03-14T11:38:28;14.00;90.90
17984;DHT22;9117;52.420;20.728;2023-03-14T11:40:58;13.90;91.80
17984;DHT22;9117;52.420;20.728;2023-03-14T11:43:29;13.90;90.00
17984;DHT22;9117;52.420;20.728;2023-03-14T11:46:03;13.90;91.80
17984;DHT22;9117;52.420;20.728;2023-03-14T11:48:39;13.90;88.60
17984;DHT22;9117;52.420;20.728;2023-03-14T11:51:14;13.90;90.90
17984;DHT22;9117;52.420;20.728;2023-03-14T11:53:50;13.90;91.20
17984;DHT22;9117;52.420;20.728;2023-03-14T11:56:29;13.80;91.40
17984;DHT22;9117;52.420;20.728;2023-03-14T11:59:03;13.80;91.50
17984;DHT22;9117;52.420;20.728;2023-03-14T12:01:40;13.70;90.80
17984;DHT22;9117;52.420;20.728;2023-03-14T12:04:19;13.70;91.30
17984;DHT22;9117;52.420;20.728;2023-03-14T12:06:50;13.70;90.10
17984;DHT22;9117;52.420;20.728;2023-03-14T12:09:21;13.70;86.50
17984;DHT22;9117;52.420;20.728;2023-03-14T12:11:51;13.60;90.40
17984;DHT22;9117;52.420;20.728;2023-03-14T12:14:26;13.50;90.90
17984;DHT22;9117;52.420;20.728;2023-03-14T12:16:56;13.50;90.10
17984;DHT22;9117;52.420;20.728;2023-03-14T12:19:31;13.50;90.40
17984;DHT22;9117;52.420;20.728;2023-03-14T12:22:06;13.40;89.30
17984;DHT22;9117;52.420;20.728;2023-03-14T12:24:38;13.40;89.20
17984;DHT22;9117;52.420;20.728;2023-03-14T12:27:09;13.40;89.80
17984;DHT22;9117;52.420;20.728;2023-03-14T12:29:59;13.30;90.10
17984;DHT22;9117;52.420;20.728;2023-03-14T12:32:30;13.10;91.90
17984;DHT22;9117;52.420;20.728;2023-03-14T12:35:07;13.00;88.90
17984;DHT22;9117;52.420;20.728;2023-03-14T12:37:57;12.90;88.90
17984;DHT22;9117;52.420;20.728;2023-03-14T12:40:31;12.80;90.50
17984;DHT22;9117;52.420;20.728;2023-03-14T12:43:01;12.70;87.40
17984;DHT22;9117;52.420;20.728;2023-03-14T12:45:30;12.60;90.60
17984;DHT22;9117;52.420;20.728;2023-03-14T12:48:09;12.50;88.10
17984;DHT22;9117;52.420;20.728;2023-03-14T12:50:42;12.40;88.10
17984;DHT22;9117;52.420;20.728;2023-03-14T12:53:39;12.30;86.90
17984;DHT22;9117;52.420;20.728;2023-03-14T12:56:26;12.10;88.50
17984;DHT22;9117;52.420;20.728;2023-03-14T12:59:11;12.00;84.80
17984;DHT22;9117;52.420;20.728;2023-03-14T13:01:47;11.90;87.30
17984;DHT22;9117;52.420;20.728;2023-03-14T13:04:16;11.80;80.10
17984;DHT22;9117;52.420;20.728;2023-03-14T13:06:56;11.70;76.00
17984;DHT22;9117;52.420;20.728;2023-03-14T13:09:50;11.60;62.20
17984;DHT22;9117;52.420;20.728;2023-03-14T13:12:37;11.50;62.30
17984;DHT22;9117;52.420;20.728;2023-03-14T13:15:27;11.50;59.80
17984;DHT22;9117;52.420;20.728;2023-03-14T13:18:02;11.40;59.10
17984;DHT22;9117;52.420;20.728;2023-03-14T13:20:35;11.40;63.50
17984;DHT22;9117;52.420;20.728;2023-03-14T13:23:17;11.30;70.20
17984;DHT22;9117;52.420;20.728;2023-03-14T13:25:46;11.20;71.70
17984;DHT22;9117;52.420;20.728;2023-03-14T13:28:16;11.10;62.80
17984;DHT22;9117;52.420;20.728;2023-03-14T13:30:46;11.10;64.00
17984;DHT22;9117;52.420;20.728;2023-03-14T13:33:16;11.00;66.00
17984;DHT22;9117;52.420;20.728;2023-03-14T13:35:46;11.00;73.70
17984;DHT22;9117;52.420;20.728;2023-03-14T13:38:18;11.00;57.10
17984;DHT22;9117;52.420;20.728;2023-03-14T13:40:50;11.00;64.10
17984;DHT22;9117;52.420;20.728;2023-03-14T13:43:27;11.00;58.00
17984;DHT22;9117;52.420;20.728;2023-03-14T13:46:13;10.90;51.50
17984;DHT22;9117;52.420;20.728;2023-03-14T13:48:46;10.90;33.30
17984;DHT22;9117;52.420;20.728;2023-03-14T13:51:17;10.90;37.10
17984;DHT22;9117;52.420;20.728;2023-03-14T13:53:49;10.90;43.50
17984;DHT22;9117;52.420;20.728;2023-03-14T13:56:18;10.90;44.60
17984;DHT22;9117;52.420;20.728;2023-03-14T13:58:49;10.80;41.80
17984;DHT22;9117;52.420;20.728;2023-03-14T14:01:19;10.80;30.50
17984;DHT22;9117;52.420;20.728;2023-03-14T14:03:49;10.80;29.30
17984;DHT22;9117;52.420;20.728;2023-03-14T14:06:30;10.70;36.10
17984;DHT22;9117;52.420;20.728;2023-03-14T14:09:00;10.60;66.50
17984;DHT22;9117;52.420;20.728;2023-03-14T14:11:38;10.60;44.70
17984;DHT22;9117;52.420;20.728;2023-03-14T14:14:24;10.60;46.00
17984;DHT22;9117;52.420;20.728;2023-03-14T14:16:54;10.50;42.50
17984;DHT22;9117;52.420;20.728;2023-03-14T14:19:23;10.50;53.20
17984;DHT22;9117;52.420;20.728;2023-03-14T14:21:53;10.40;36.60
17984;DHT22;9117;52.420;20.728;2023-03-14T14:24:23;10.50;38.90
17984;DHT22;9117;52.420;20.728;2023-03-14T14:26:53;10.40;44.00
17984;DHT22;9117;52.420;20.728;2023-03-14T14:29:26;10.40;49.70
17984;DHT22;9117;52.420;20.728;2023-03-14T14:32:11;10.40;50.10
17984;DHT22;9117;52.420;20.728;2023-03-14T14:34:42;10.40;46.70
17984;DHT22;9117;52.420;20.728;2023-03-14T14:37:19;10.30;65.60
17984;DHT22;9117;52.420;20.728;2023-03-14T14:39:48;10.40;48.50
17984;DHT22;9117;52.420;20.728;2023-03-14T14:42:20;10.30;51.80
17984;DHT22;9117;52.420;20.728;2023-03-14T14:44:51;10.40;48.60
17984;DHT22;9117;52.420;20.728;2023-03-14T14:47:22;10.30;28.20
17984;DHT22;9117;52.420;20.728;2023-03-14T14:49:53;10.30;26.00
17984;DHT22;9117;52.420;20.728;2023-03-14T14:52:31;10.30;26.10
17984;DHT22;9117;52.420;20.728;2023-03-14T14:55:01;10.30;32.00
17984;DHT22;9117;52.420;20.728;2023-03-14T14:57:32;10.30;19.90
17984;DHT22;9117;52.420;20.728;2023-03-14T15:00:07;10.30;16.30
17984;DHT22;9117;52.420;20.728;2023-03-14T15:02:40;10.30;24.40
17984;DHT22;9117;52.420;20.728;2023-03-14T15:05:14;10.30;32.70
17984;DHT22;9117;52.420;20.728;2023-03-14T15:07:42;10.30;26.30
17984;DHT22;9117;52.420;20.728;2023-03-14T15:10:12;10.30;29.20
17984;DHT22;9117;52.420;20.728;2023-03-14T15:12:40;10.30;27.30
17984;DHT22;9117;52.420;20.728;2023-03-14T15:15:12;10.30;13.60
17984;DHT22;9117;52.420;20.728;2023-03-14T15:17:40;10.20;17.80
17984;DHT22;9117;52.420;20.728;2023-03-14T15:20:12;10.20;9.30
17984;DHT22;9117;52.420;20.728;2023-03-14T15:22:41;10.20;18.00
17984;DHT22;9117;52.420;20.728;2023-03-14T15:25:09;10.20;16.20
17984;DHT22;9117;52.420;20.728;2023-03-14T15:27:57;10.20;9.10
17984;DHT22;9117;52.420;20.728;2023-03-14T15:30:27;10.20;10.00
17984;DHT22;9117;52.420;20.728;2023-03-14T15:32:55;10.20;3.20
17984;DHT22;9117;52.420;20.728;2023-03-14T15:35:23;10.20;1.80
17984;DHT22;9117;52.420;20.728;2023-03-14T15:37:51;10.20;2.80
17984;DHT22;9117;52.420;20.728;2023-03-14T15:40:23;10.20;2.90
17984;DHT22;9117;52.420;20.728;2023-03-14T15:42:55;10.20;6.10
17984;DHT22;9117;52.420;20.728;2023-03-14T15:45:24;10.10;1.00
17984;DHT22;9117;52.420;20.728;2023-03-14T15:47:54;10.10;1.00
17984;DHT22;9117;52.420;20.728;2023-03-14T15:50:22;10.10;1.00
17984;DHT22;9117;52.420;20.728;2023-03-14T15:52:52;10.10;1.00
17984;DHT22;9117;52.420;20.728;2023-03-14T15:55:20;10.10;3.10
17984;DHT22;9117;52.420;20.728;2023-03-14T15:57:48;10.10;1.00
17984;DHT22;9117;52.420;20.728;2023-03-14T16:00:18;10.10;1.00
17984;DHT22;9117;52.420;20.728;2023-03-14T16:02:48;10.00;1.00
17984;DHT22;9117;52.420;20.728;2023-03-14T16:05:18;10.00;1.00
17984;DHT22;9117;52.420;20.728;2023-03-14T16:07:47;10.00;3.40